Time;durP1;ratioP1;P1;durP2;ratioP2;P2;SDS_P1;SDS_P2;PMS_P1;PMS_P2;Temp;Humidity;BMP_temperature;BMP_pressure;BME280_temperature;BME280_humidity;BME280_pressure;Samples;Min_cycle;Max_cycle;Signal;HPM_P1;HPM_P2
2021/05/11 00:00:31;;;;;;;16.42;1.55;;;10.60;93.50;;;;;;5019686;28;20032;-83
2021/05/11 00:02:57;;;;;;;9.85;1.70;;;10.60;93.50;;;;;;5018659;28;20033;-85
2021/05/11 00:05:26;;;;;;;11.45;1.55;;;10.60;93.40;;;;;;5034941;28;20494;-81
2021/05/11 00:07:52;;;;;;;12.27;1.48;;;10.60;93.40;;;;;;5035413;28;20353;-84
2021/05/11 00:10:18;;;;;;;22.13;2.67;;;10.50;93.40;;;;;;5018172;28;20040;-83
2021/05/11 00:12:43;;;;;;;18.33;1.63;;;10.60;93.30;;;;;;5052336;28;20474;-83
2021/05/11 00:15:09;;;;;;;13.90;1.20;;;10.50;93.30;;;;;;5018458;28;20478;-85
2021/05/11 00:17:35;;;;;;;10.93;1.63;;;10.50;93.20;;;;;;5018450;28;20252;-85
2021/05/11 00:20:01;;;;;;;11.23;1.85;;;10.50;93.20;;;;;;5017828;28;20032;-84
2021/05/11 00:22:27;;;;;;;8.40;1.75;;;10.50;93.20;;;;;;5034671;28;20410;-85
2021/05/11 00:24:52;;;;;;;10.40;1.27;;;10.40;93.20;;;;;;5034565;28;20031;-83
2021/05/11 00:27:18;;;;;;;9.18;1.48;;;10.40;93.20;;;;;;5018165;28;20063;-84
2021/05/11 00:29:44;;;;;;;15.27;2.03;;;10.40;93.20;;;;;;5018169;28;20029;-83
2021/05/11 00:32:09;;;;;;;13.68;1.38;;;10.30;93.20;;;;;;5018517;28;20114;-84
2021/05/11 00:34:35;;;;;;;18.77;1.67;;;10.30;93.20;;;;;;5018299;28;20036;-84
2021/05/11 00:37:01;;;;;;;12.15;1.80;;;10.30;93.20;;;;;;5002012;28;20507;-84
2021/05/11 00:39:26;;;;;;;8.90;1.63;;;10.30;93.20;;;;;;5018840;28;20703;-82
2021/05/11 00:41:52;;;;;;;6.78;1.13;;;10.30;93.20;;;;;;5018505;28;20048;-84
2021/05/11 00:44:22;;;;;;;13.90;2.50;;;10.30;93.20;;;;;;5034912;28;20032;-84
2021/05/11 00:46:57;;;;;;;11.23;1.30;;;10.20;93.20;;;;;;5018726;28;20096;-85
2021/05/11 00:49:24;;;;;;;12.15;1.75;;;10.20;93.10;;;;;;5035693;28;20029;-83
2021/05/11 00:51:51;;;;;;;10.10;1.85;;;10.20;93.10;;;;;;5035394;28;20344;-82
2021/05/11 00:54:17;;;;;;;8.00;1.20;;;10.20;93.10;;;;;;5054088;28;20025;-83
2021/05/11 00:56:44;;;;;;;9.88;1.48;;;10.20;93.10;;;;;;5036491;28;20483;-83
2021/05/11 00:59:43;;;;;;;19.05;2.05;;;10.10;93.00;;;;;;5036945;28;20490;-83
2021/05/11 01:02:05;;;;;;;12.88;1.42;;;10.10;93.10;;;;;;5036774;28;20037;-84
2021/05/11 01:04:31;;;;;;;17.02;1.73;;;10.10;93.10;;;;;;5054426;28;20021;-82
2021/05/11 01:06:57;;;;;;;24.05;1.85;;;10.00;93.10;;;;;;5036373;28;20096;-83
2021/05/11 01:09:25;;;;;;;16.08;2.03;;;10.00;93.10;;;;;;5037330;28;20115;-84
2021/05/11 01:11:52;;;;;;;13.73;1.55;;;9.90;93.10;;;;;;5036957;28;20033;-83
2021/05/11 01:14:17;;;;;;;12.77;1.55;;;9.90;93.10;;;;;;5020360;28;20072;-83
2021/05/11 01:16:46;;;;;;;15.85;1.90;;;9.90;93.10;;;;;;5020458;28;20029;-83
2021/05/11 02:25:07;;;;;;;16.50;2.00;;;9.50;92.70;;;;;;5039239;28;20035;-82
2021/05/11 02:27:33;;;;;;;8.50;1.90;;;9.60;92.70;;;;;;5019760;28;20029;-83
2021/05/11 02:29:59;;;;;;;9.68;1.95;;;9.60;92.70;;;;;;5036065;28;20025;-82
2021/05/11 02:32:24;;;;;;;8.45;2.33;;;9.60;92.70;;;;;;5020299;28;20059;-82
2021/05/11 02:34:50;;;;;;;15.05;2.03;;;9.60;92.60;;;;;;5003465;28;20064;-82
2021/05/11 02:37:16;;;;;;;10.32;1.92;;;9.60;92.60;;;;;;5035826;28;20060;-81
2021/05/11 02:39:42;;;;;;;15.13;2.08;;;9.60;92.60;;;;;;5019450;28;20060;-82
2021/05/11 02:42:08;;;;;;;14.98;2.20;;;9.50;92.60;;;;;;5003150;28;20029;-82
2021/05/11 02:44:42;;;;;;;12.55;2.13;;;9.50;92.60;;;;;;5053831;28;20029;-85
2021/05/11 02:47:08;;;;;;;8.90;1.83;;;9.50;92.50;;;;;;5035829;28;20489;-84
2021/05/11 02:49:37;;;;;;;11.55;2.35;;;9.50;92.50;;;;;;5053767;28;20033;-81
2021/05/11 02:52:03;;;;;;;10.63;2.08;;;9.50;92.50;;;;;;5019191;28;20033;-81
2021/05/11 02:54:29;;;;;;;12.63;1.50;;;9.50;92.50;;;;;;5019298;28;20029;-82
2021/05/11 02:56:54;;;;;;;11.88;1.80;;;9.40;92.50;;;;;;5002944;28;20029;-82
2021/05/11 02:59:20;;;;;;;19.55;3.50;;;9.40;92.50;;;;;;5019042;28;20033;-82
2021/05/11 03:01:45;;;;;;;18.88;2.97;;;9.40;92.50;;;;;;5003005;28;20044;-80
2021/05/11 03:04:11;;;;;;;16.80;2.65;;;9.40;92.50;;;;;;5035576;28;20035;-82
2021/05/11 03:06:37;;;;;;;14.65;2.20;;;9.40;92.50;;;;;;5002902;28;20029;-83
2021/05/11 03:09:03;;;;;;;19.77;2.63;;;9.30;92.50;;;;;;5035592;28;20079;-82
2021/05/11 03:11:29;;;;;;;14.10;1.92;;;9.30;92.50;;;;;;5035492;28;20032;-81
2021/05/11 03:13:54;;;;;;;14.30;1.63;;;9.30;92.50;;;;;;5019122;28;20035;-81
2021/05/11 03:16:22;;;;;;;26.23;3.63;;;9.30;92.50;;;;;;5018816;28;20043;-83
2021/05/11 03:18:47;;;;;;;13.23;1.95;;;9.30;92.40;;;;;;5018970;28;20029;-82
2021/05/11 03:21:13;;;;;;;14.30;2.13;;;9.30;92.40;;;;;;5018815;28;20039;-81
2021/05/11 03:23:39;;;;;;;10.43;1.83;;;9.30;92.40;;;;;;5002340;28;20033;-81
2021/05/11 03:26:04;;;;;;;22.63;3.47;;;9.30;92.40;;;;;;5035164;28;20025;-81
2021/05/11 03:28:30;;;;;;;13.38;2.58;;;9.30;92.40;;;;;;5034963;28;20032;-82
2021/05/11 03:30:56;;;;;;;13.35;1.98;;;9.30;92.50;;;;;;5018494;28;20715;-84
2021/05/11 03:33:21;;;;;;;11.85;1.20;;;9.30;92.70;;;;;;5018627;28;20107;-82
2021/05/11 03:35:47;;;;;;;21.58;2.40;;;9.30;92.50;;;;;;5018290;28;20025;-82
2021/05/11 03:38:14;;;;;;;20.95;2.70;;;9.20;92.50;;;;;;5018548;28;20059;-82
2021/05/11 03:40:40;;;;;;;21.02;2.40;;;9.20;92.40;;;;;;5035093;28;20598;-83
2021/05/11 03:43:22;;;;;;;15.73;1.70;;;9.20;92.40;;;;;;5018565;28;20033;-81
2021/05/11 03:45:53;;;;;;;12.02;1.75;;;9.20;92.40;;;;;;5034782;28;20029;-82
2021/05/11 03:48:19;;;;;;;13.65;1.73;;;9.20;92.50;;;;;;5019248;28;20033;-83
2021/05/11 03:50:45;;;;;;;17.48;2.53;;;9.10;92.50;;;;;;5034434;28;20084;-80
2021/05/11 03:53:11;;;;;;;15.68;2.55;;;9.10;92.50;;;;;;5017866;28;20102;-80
2021/05/11 03:55:36;;;;;;;13.13;2.50;;;9.10;92.60;;;;;;5017996;28;20037;-81
2021/05/11 03:58:02;;;;;;;9.13;1.65;;;9.10;92.60;;;;;;5034113;28;20033;-81
2021/05/11 04:00:28;;;;;;;20.60;2.28;;;9.10;92.60;;;;;;5001577;28;20025;-81
2021/05/11 04:02:53;;;;;;;12.95;1.95;;;9.10;92.60;;;;;;5001357;28;20478;-81
2021/05/11 04:05:20;;;;;;;7.53;1.92;;;9.10;92.60;;;;;;5001565;28;20032;-81
2021/05/11 04:07:49;;;;;;;17.92;1.98;;;9.10;92.60;;;;;;5001930;28;20029;-80
2021/05/11 04:10:37;;;;;;;10.53;1.30;;;9.00;92.50;;;;;;5018237;28;20032;-82
2021/05/11 04:13:22;;;;;;;9.25;1.92;;;9.00;92.50;;;;;;5024126;28;20021;-80
2021/05/11 04:18:32;;;;;;;12.70;1.48;;;9.00;92.50;;;;;;5023278;28;20436;-81
2021/05/11 04:20:58;;;;;;;16.00;2.17;;;9.00;92.50;;;;;;5017712;28;20029;-81
2021/05/11 04:23:23;;;;;;;16.83;1.73;;;8.90;92.50;;;;;;5018119;28;20387;-82
2021/05/11 04:25:49;;;;;;;17.00;2.95;;;8.90;92.50;;;;;;5017575;28;20372;-82
2021/05/11 04:28:16;;;;;;;13.45;2.33;;;8.90;92.50;;;;;;5017950;28;20091;-83
2021/05/11 04:30:42;;;;;;;20.63;2.03;;;8.90;92.60;;;;;;5034373;28;20033;-81
2021/05/11 04:33:08;;;;;;;9.45;2.15;;;8.90;92.60;;;;;;5017802;28;20051;-80
2021/05/11 04:35:33;;;;;;;20.75;1.95;;;8.90;92.60;;;;;;5017541;28;20036;-80
2021/05/11 04:37:59;;;;;;;13.43;2.28;;;8.90;92.60;;;;;;5001119;28;20135;-80
2021/05/11 04:40:25;;;;;;;17.75;2.60;;;8.90;92.60;;;;;;5034458;28;20502;-80
2021/05/11 04:42:50;;;;;;;14.05;3.00;;;8.90;92.60;;;;;;5034381;28;20029;-81
2021/05/11 04:45:20;;;;;;;12.00;1.83;;;8.90;92.60;;;;;;5017541;28;20079;-83
2021/05/11 04:47:47;;;;;;;8.68;1.92;;;8.90;92.60;;;;;;5018024;28;20040;-82
2021/05/11 04:50:24;;;;;;;22.75;3.45;;;8.90;92.60;;;;;;5033932;28;20484;-82
2021/05/11 04:52:51;;;;;;;23.27;2.10;;;8.90;92.60;;;;;;5035249;28;20043;-82
2021/05/11 04:55:18;;;;;;;18.15;1.58;;;8.90;92.60;;;;;;5052356;28;20394;-81
2021/05/11 04:57:44;;;;;;;6.18;1.65;;;8.90;92.60;;;;;;5051810;28;20426;-82
2021/05/11 05:00:12;;;;;;;9.40;1.60;;;8.90;92.60;;;;;;5051398;28;20029;-82
2021/05/11 05:02:41;;;;;;;15.88;2.08;;;8.90;92.60;;;;;;5033845;28;20032;-82
2021/05/11 05:05:07;;;;;;;16.92;2.25;;;8.90;92.60;;;;;;5017588;28;20025;-83
2021/05/11 05:07:35;;;;;;;14.18;1.80;;;8.90;92.70;;;;;;5051743;28;20143;-82
2021/05/11 05:10:02;;;;;;;14.57;2.10;;;8.90;92.70;;;;;;5033634;28;20037;-82
2021/05/11 05:12:27;;;;;;;10.77;1.63;;;9.00;92.70;;;;;;5033543;28;20025;-81
2021/05/11 05:14:53;;;;;;;11.35;2.40;;;9.00;92.70;;;;;;5018976;28;20553;-81
2021/05/11 05:17:18;;;;;;;10.38;1.95;;;9.10;92.70;;;;;;5005369;28;20033;-82
2021/05/11 05:19:44;;;;;;;20.35;2.30;;;9.10;92.70;;;;;;5055743;28;20497;-82
2021/05/11 05:22:10;;;;;;;15.55;1.58;;;9.10;92.70;;;;;;5021432;28;20025;-81
2021/05/11 05:24:40;;;;;;;14.80;2.75;;;9.20;92.70;;;;;;5005496;28;20037;-82
2021/05/11 05:29:51;;;;;;;13.80;2.00;;;9.30;92.60;;;;;;5027780;28;20036;-82
2021/05/11 05:32:16;;;;;;;10.43;1.40;;;9.40;92.60;;;;;;5038739;28;20394;-80
2021/05/11 05:34:43;;;;;;;11.38;1.73;;;9.40;92.60;;;;;;5022131;28;20083;-82
2021/05/11 05:37:09;;;;;;;15.07;2.20;;;9.40;92.60;;;;;;5038306;28;20049;-81
2021/05/11 05:39:44;;;;;;;15.70;1.92;;;9.40;92.60;;;;;;5022272;28;20082;-84
2021/05/11 05:42:10;;;;;;;13.15;1.58;;;9.50;92.50;;;;;;5055635;28;20067;-82
2021/05/11 05:44:36;;;;;;;10.38;1.60;;;9.50;92.50;;;;;;5022202;28;20406;-82
2021/05/11 05:47:02;;;;;;;12.35;1.50;;;9.50;92.50;;;;;;5006181;28;20051;-79
2021/05/11 05:49:38;;;;;;;12.23;2.17;;;9.50;92.50;;;;;;5022360;28;20033;-82
2021/05/11 05:52:06;;;;;;;16.55;1.92;;;9.60;92.50;;;;;;5056658;28;20104;-80
2021/05/11 05:54:32;;;;;;;11.02;2.13;;;9.60;92.50;;;;;;5022370;28;20056;-83
2021/05/11 05:56:57;;;;;;;12.23;2.38;;;9.70;92.50;;;;;;5021814;28;20452;-82
2021/05/11 05:59:23;;;;;;;17.98;2.75;;;9.80;92.50;;;;;;5022852;28;20415;-82
2021/05/11 06:01:49;;;;;;;25.02;2.63;;;10.00;92.60;;;;;;5008567;28;20038;-83
2021/05/11 06:04:17;;;;;;;10.43;2.10;;;10.40;92.90;;;;;;5025948;28;20033;-82
2021/05/11 06:06:44;;;;;;;15.00;2.13;;;11.20;92.70;;;;;;5041575;28;20027;-81
2021/05/11 06:09:15;;;;;;;11.90;1.67;;;12.00;91.20;;;;;;5041828;28;20037;-81
2021/05/11 06:11:54;;;;;;;8.70;1.73;;;12.20;90.00;;;;;;5042476;28;20475;-81
2021/05/11 06:14:29;;;;;;;16.48;1.77;;;12.10;89.70;;;;;;5027182;28;20033;-81
2021/05/11 06:19:43;;;;;;;12.15;2.05;;;11.80;90.50;;;;;;5059885;28;20662;-81
2021/05/11 06:22:09;;;;;;;9.68;1.92;;;11.80;90.60;;;;;;5059501;28;20028;-82
2021/05/11 06:24:35;;;;;;;24.42;2.45;;;11.80;90.70;;;;;;5025552;28;20060;-82
2021/05/11 06:27:01;;;;;;;19.90;2.08;;;11.80;90.90;;;;;;5040984;28;20463;-82
2021/05/11 06:29:28;;;;;;;8.15;1.90;;;12.20;92.00;;;;;;5024657;28;20083;-82
2021/05/11 06:31:54;;;;;;;8.98;2.25;;;13.50;92.00;;;;;;5026378;28;20058;-82
2021/05/11 06:34:20;;;;;;;14.93;2.72;;;15.10;90.90;;;;;;5025712;28;20036;-82
2021/05/11 06:36:45;;;;;;;9.05;2.05;;;16.50;87.40;;;;;;5042016;28;20544;-83
2021/05/11 06:39:13;;;;;;;11.70;2.33;;;17.00;82.40;;;;;;5023936;28;20033;-82
2021/05/11 06:41:41;;;;;;;25.55;2.95;;;16.50;79.60;;;;;;5023481;28;20029;-82
2021/05/11 06:47:56;;;;;;;15.57;2.05;;;14.90;79.50;;;;;;5026831;28;20042;-81
2021/05/11 06:54:58;;;;;;;17.42;2.35;;;13.10;83.60;;;;;;5056666;28;20413;-81
2021/05/11 06:57:25;;;;;;;19.95;3.08;;;12.80;84.70;;;;;;5023862;28;20033;-80
2021/05/11 06:59:51;;;;;;;10.70;2.28;;;12.60;85.20;;;;;;5038482;28;20120;-81
2021/05/11 07:02:17;;;;;;;15.18;2.55;;;12.50;85.70;;;;;;5040149;28;20451;-80
2021/05/11 07:04:44;;;;;;;14.05;2.00;;;12.40;86.30;;;;;;5039753;28;20017;-82
2021/05/11 07:07:12;;;;;;;18.13;2.13;;;12.50;87.30;;;;;;5022948;28;20022;-81
2021/05/11 07:14:30;;;;;;;22.00;3.75;;;14.00;87.70;;;;;;5056504;28;20240;-81
2021/05/11 07:16:55;;;;;;;11.20;2.47;;;15.00;86.10;;;;;;5020826;28;20033;-81
2021/05/11 07:19:21;;;;;;;12.30;2.00;;;16.20;86.40;;;;;;5055656;28;20040;-82
2021/05/11 07:21:47;;;;;;;16.50;3.10;;;17.70;84.00;;;;;;5036847;28;20504;-72
2021/05/11 07:24:13;;;;;;;10.50;2.20;;;18.90;80.80;;;;;;5053504;28;20467;-82
2021/05/11 07:27:11;;;;;;;10.55;2.42;;;20.00;77.40;;;;;;5034919;28;20080;-80
2021/05/11 07:29:52;;;;;;;13.27;2.53;;;20.30;73.30;;;;;;5027842;28;20044;-81
2021/05/11 07:32:17;;;;;;;9.45;2.25;;;20.10;72.20;;;;;;5021573;28;20082;-83
2021/05/11 07:34:46;;;;;;;20.45;2.67;;;20.50;73.00;;;;;;5018626;28;20033;-80
2021/05/11 07:37:12;;;;;;;8.68;2.22;;;21.00;72.10;;;;;;5052912;28;20383;-81
2021/05/11 07:39:39;;;;;;;16.20;2.08;;;21.80;71.20;;;;;;5033791;28;20063;-81
2021/05/11 07:42:05;;;;;;;12.68;2.70;;;22.60;69.00;;;;;;5034916;28;20025;-82
2021/05/11 07:44:33;;;;;;;10.38;2.55;;;23.40;67.60;;;;;;5034475;28;20031;-82
2021/05/11 07:47:09;;;;;;;13.00;2.55;;;24.20;65.80;;;;;;5034363;28;20025;-80
2021/05/11 08:03:23;;;;;;;9.38;1.85;;;24.90;58.60;;;;;;5053345;28;20039;-82
2021/05/11 08:16:39;;;;;;;8.15;2.15;;;25.60;56.00;;;;;;5036412;28;20183;-81
2021/05/11 08:29:30;;;;;;;10.07;2.50;;;26.20;52.30;;;;;;5038347;28;20036;-80
2021/05/11 08:31:56;;;;;;;7.20;2.47;;;26.40;50.90;;;;;;5052336;28;20299;-84
2021/05/11 08:34:23;;;;;;;6.38;1.48;;;26.50;50.20;;;;;;5035692;28;20536;-81
2021/05/11 08:36:48;;;;;;;9.98;1.92;;;26.20;49.40;;;;;;5035995;28;20162;-81
2021/05/11 08:39:14;;;;;;;8.88;1.73;;;25.60;48.30;;;;;;5002636;28;20557;-81
2021/05/11 08:41:40;;;;;;;9.52;1.63;;;25.00;48.00;;;;;;5035853;28;20095;-80
2021/05/11 08:44:08;;;;;;;12.52;2.05;;;24.00;48.10;;;;;;5019174;28;20032;-81
2021/05/11 08:46:37;;;;;;;3.92;1.15;;;23.50;49.10;;;;;;5053230;28;20112;-79
2021/05/11 08:49:05;;;;;;;7.87;1.57;;;23.80;49.40;;;;;;5034231;28;20028;-81
2021/05/11 08:51:36;;;;;;;7.78;2.08;;;24.10;49.70;;;;;;5035447;28;20029;-82
2021/05/11 09:00:04;;;;;;;7.28;1.90;;;24.80;45.80;;;;;;4952161;29;20086;-83
2021/05/11 09:05:40;;;;;;;6.38;1.70;;;24.90;45.50;;;;;;5022980;28;20493;-83
2021/05/11 09:08:38;;;;;;;8.32;1.80;;;25.60;45.00;;;;;;5036043;28;20550;-81
2021/05/11 09:25:28;;;;;;;7.22;2.00;;;28.30;41.50;;;;;;5054504;28;20086;-80
2021/05/11 09:28:04;;;;;;;7.97;2.25;;;28.20;41.30;;;;;;5054524;28;20017;-80
2021/05/11 09:33:37;;;;;;;9.80;1.88;;;28.80;40.70;;;;;;5053253;28;20021;-81
2021/05/11 10:01:36;;;;;;;6.43;2.55;;;31.30;37.80;;;;;;5053258;28;20025;-81
2021/05/11 10:27:05;;;;;;;7.75;2.13;;;30.40;36.80;;;;;;5056723;28;20107;-77
2021/05/11 10:48:28;;;;;;;6.47;2.42;;;31.00;37.00;;;;;;5056232;28;20025;-81
2021/05/11 10:50:56;;;;;;;11.27;2.83;;;31.30;35.90;;;;;;5038427;28;20021;-82
2021/05/11 10:53:34;;;;;;;7.60;2.00;;;31.40;35.40;;;;;;5036830;28;20021;-80
2021/05/11 10:56:22;;;;;;;6.75;2.20;;;31.10;35.10;;;;;;5055611;28;20098;-80
2021/05/11 10:59:22;;;;;;;6.63;1.85;;;30.70;35.40;;;;;;5054377;28;20117;-80
2021/05/11 11:02:24;;;;;;;6.85;2.25;;;30.70;35.10;;;;;;5036554;28;20021;-80
2021/05/11 11:04:50;;;;;;;6.63;2.25;;;30.60;35.40;;;;;;5037167;28;20801;-80
2021/05/11 11:07:15;;;;;;;10.23;1.92;;;30.80;35.60;;;;;;5037014;28;20032;-78
2021/05/11 11:09:59;;;;;;;8.13;2.72;;;30.80;35.20;;;;;;5054703;28;20114;-81
2021/05/11 11:12:36;;;;;;;7.40;1.90;;;30.70;34.80;;;;;;5020841;28;20060;-80
2021/05/11 11:15:12;;;;;;;10.48;2.60;;;30.50;34.80;;;;;;5054803;28;20109;-80
2021/05/11 11:17:42;;;;;;;9.05;2.80;;;30.50;35.50;;;;;;5037643;28;20031;-81
2021/05/11 11:20:12;;;;;;;9.15;2.08;;;30.40;34.70;;;;;;5037508;28;20033;-81
2021/05/11 11:25:23;;;;;;;11.15;1.80;;;30.60;34.90;;;;;;5025477;28;20116;-78
2021/05/11 11:27:49;;;;;;;10.68;2.67;;;30.70;34.70;;;;;;5055125;28;20447;-80
2021/05/11 11:30:16;;;;;;;6.57;2.17;;;30.80;34.70;;;;;;5036831;28;20037;-79
2021/05/11 11:32:42;;;;;;;5.70;2.50;;;30.80;34.30;;;;;;5037316;28;20025;-81
2021/05/11 11:35:10;;;;;;;7.70;1.90;;;30.50;34.10;;;;;;5036672;28;20028;-81
2021/05/11 11:37:36;;;;;;;5.50;1.70;;;30.30;34.20;;;;;;5035979;28;20049;-80
2021/05/11 11:40:10;;;;;;;5.68;2.17;;;29.80;34.00;;;;;;5036428;28;20033;-83
2021/05/11 11:42:41;;;;;;;6.93;1.83;;;29.50;34.30;;;;;;5032068;28;20021;-78
2021/05/11 11:45:11;;;;;;;7.88;2.25;;;29.50;34.80;;;;;;5037138;28;20104;-80
2021/05/11 11:47:50;;;;;;;7.40;1.90;;;29.50;34.60;;;;;;5036809;28;20032;-80
2021/05/11 11:50:17;;;;;;;5.47;2.03;;;29.50;34.80;;;;;;5037880;28;20199;-79
2021/05/11 11:58:02;;;;;;;13.98;2.65;;;27.60;35.00;;;;;;5054970;28;20025;-79
2021/05/11 12:00:32;;;;;;;9.05;2.92;;;27.60;35.90;;;;;;5020364;28;20055;-81
2021/05/11 12:03:09;;;;;;;6.18;2.15;;;27.90;36.00;;;;;;5036527;28;20577;-78
2021/05/11 12:05:44;;;;;;;8.20;1.88;;;27.90;35.60;;;;;;5055107;28;20416;-78
2021/05/11 12:08:21;;;;;;;7.90;1.92;;;28.00;36.20;;;;;;5019346;28;20104;-78
2021/05/11 12:11:00;;;;;;;12.43;1.90;;;28.00;35.60;;;;;;5034931;28;20453;-78
2021/05/11 12:13:30;;;;;;;;;;;27.70;35.40;;;;;;5053423;28;20104;-79
2021/05/11 12:16:17;;;;;;;10.90;2.55;;;27.70;36.20;;;;;;5035731;28;19909;-78
2021/05/11 12:19:08;;;;;;;7.57;2.08;;;27.90;35.90;;;;;;5034831;28;20116;-80
2021/05/11 12:21:50;;;;;;;12.23;2.10;;;27.90;35.30;;;;;;5035490;28;20025;-79
2021/05/11 12:24:16;;;;;;;16.20;3.25;;;28.00;35.60;;;;;;5034787;28;20017;-78
2021/05/11 12:26:43;;;;;;;9.18;2.33;;;28.00;35.70;;;;;;5053342;28;20100;-71
2021/05/11 12:29:19;;;;;;;11.98;2.47;;;28.10;35.70;;;;;;5053014;28;20352;-80
2021/05/11 12:31:48;;;;;;;6.60;1.67;;;28.20;35.60;;;;;;5053583;28;20079;-80
2021/05/11 12:34:22;;;;;;;6.50;2.13;;;28.20;35.50;;;;;;5035442;28;20364;-79
2021/05/11 12:36:53;;;;;;;7.50;2.55;;;28.30;35.80;;;;;;5035249;28;20037;-79
2021/05/11 12:41:51;;;;;;;10.57;2.53;;;28.00;35.80;;;;;;5054045;28;20342;-79
2021/05/11 12:44:27;;;;;;;10.02;2.38;;;27.70;36.00;;;;;;5052650;28;20097;-79
2021/05/11 12:47:06;;;;;;;9.35;2.38;;;27.50;35.70;;;;;;5034881;28;20021;-79
2021/05/11 12:49:32;;;;;;;17.60;3.10;;;27.10;35.90;;;;;;5018844;28;20445;-78
2021/05/11 12:51:57;;;;;;;14.02;3.00;;;26.70;36.30;;;;;;5052574;28;20104;-79
2021/05/11 13:26:09;;;;;;;7.27;2.07;;;26.00;37.10;;;;;;5029652;28;20029;-77
2021/05/11 13:31:58;;;;;;;26.23;4.47;;;25.10;36.70;;;;;;5034988;28;20491;-79
2021/05/11 13:34:12;;;;;;;8.52;2.55;;;24.60;36.80;;;;;;5026909;28;20094;-76
2021/05/11 13:36:41;;;;;;;8.52;1.80;;;24.00;37.20;;;;;;5041308;28;20486;-78
2021/05/11 13:39:07;;;;;;;7.25;2.17;;;23.60;37.30;;;;;;5039696;28;20107;-77
2021/05/11 13:41:33;;;;;;;7.57;1.85;;;23.10;37.60;;;;;;5022913;28;20036;-79
2021/05/11 13:43:59;;;;;;;10.63;1.85;;;22.80;37.80;;;;;;5022550;28;20029;-79
2021/05/11 13:46:25;;;;;;;7.75;1.83;;;22.40;38.00;;;;;;5038287;28;20120;-80
2021/05/11 13:48:51;;;;;;;8.43;2.08;;;22.00;38.00;;;;;;5038635;28;20479;-81
2021/05/11 13:51:20;;;;;;;7.55;1.83;;;21.60;38.20;;;;;;5038302;28;20033;-80
2021/05/11 13:53:49;;;;;;;10.60;2.67;;;21.50;38.60;;;;;;5056039;28;20025;-79
2021/05/11 13:56:30;;;;;;;6.28;1.70;;;21.40;38.70;;;;;;5037691;28;20032;-78
2021/05/11 14:04:19;;;;;;;9.27;3.08;;;21.00;39.60;;;;;;5040106;28;20025;-79
2021/05/11 14:06:45;;;;;;;8.07;2.35;;;21.10;39.40;;;;;;5055627;28;20048;-79
2021/05/11 14:09:12;;;;;;;10.57;2.47;;;21.10;39.60;;;;;;5037914;28;20021;-78
2021/05/11 14:11:39;;;;;;;15.18;3.30;;;21.30;39.50;;;;;;5022291;28;20112;-79
2021/05/11 14:14:07;;;;;;;12.15;2.08;;;21.30;39.30;;;;;;5022561;28;20398;-79
2021/05/11 14:16:33;;;;;;;7.45;1.25;;;21.40;39.60;;;;;;5038115;28;20083;-79
2021/05/11 14:18:59;;;;;;;12.57;2.35;;;21.40;39.80;;;;;;5038574;28;20021;-77
2021/05/11 14:21:25;;;;;;;9.15;2.55;;;21.30;39.80;;;;;;5021871;28;20021;-79
2021/05/11 14:23:53;;;;;;;8.00;2.50;;;21.30;40.10;;;;;;5037677;28;20037;-79
2021/05/11 14:26:19;;;;;;;5.50;1.75;;;21.20;40.20;;;;;;5038012;28;20032;-78
2021/05/11 14:28:45;;;;;;;8.43;1.90;;;21.30;40.30;;;;;;5021884;28;20059;-80
2021/05/11 14:31:11;;;;;;;11.15;2.00;;;21.30;40.30;;;;;;5037978;28;20051;-79
2021/05/11 14:33:38;;;;;;;18.95;2.70;;;21.40;40.40;;;;;;5021741;28;20037;-79
2021/05/11 14:36:04;;;;;;;10.13;2.90;;;21.40;40.40;;;;;;5037419;28;20029;-79
2021/05/11 14:38:30;;;;;;;8.35;2.30;;;21.40;40.40;;;;;;5021111;28;20052;-79
2021/05/11 14:41:01;;;;;;;17.17;3.63;;;21.40;40.50;;;;;;5037271;28;20032;-80
2021/05/11 14:43:28;;;;;;;9.18;2.13;;;21.30;40.50;;;;;;5037960;28;20021;-79
2021/05/11 14:45:53;;;;;;;8.95;2.55;;;21.20;40.70;;;;;;5021169;28;20084;-80
2021/05/11 14:48:19;;;;;;;8.75;2.25;;;21.20;40.80;;;;;;5036303;28;20420;-79
2021/05/11 14:50:44;;;;;;;7.93;2.13;;;21.20;40.50;;;;;;5004092;28;20228;-77
2021/05/11 14:53:10;;;;;;;6.05;2.17;;;21.10;40.50;;;;;;5004186;28;20025;-81
2021/05/11 14:55:36;;;;;;;7.43;2.35;;;20.90;40.90;;;;;;5020948;28;20071;-79
2021/05/11 14:58:02;;;;;;;10.90;3.28;;;20.80;40.70;;;;;;5036883;28;20032;-79
2021/05/11 15:00:28;;;;;;;9.32;1.95;;;20.70;40.60;;;;;;5021205;28;20032;-81
2021/05/11 15:02:54;;;;;;;11.05;2.17;;;20.70;40.70;;;;;;5021040;28;20025;-80
2021/05/11 15:05:20;;;;;;;7.65;1.60;;;20.80;40.70;;;;;;5037082;28;20094;-78
2021/05/11 15:07:48;;;;;;;15.73;6.28;;;20.80;40.70;;;;;;5038199;28;20017;-79
2021/05/11 15:10:15;;;;;;;8.93;2.23;;;20.80;40.90;;;;;;5005946;28;20029;-75
2021/05/11 15:12:41;;;;;;;11.98;2.50;;;20.90;41.10;;;;;;5037639;28;20075;-80
2021/05/11 15:15:11;;;;;;;8.02;2.60;;;21.00;41.10;;;;;;5037195;28;20052;-81
2021/05/11 15:20:03;;;;;;;8.63;2.30;;;21.20;41.10;;;;;;5055886;28;20025;-81
2021/05/11 15:22:28;;;;;;;6.85;1.70;;;21.10;40.30;;;;;;5056661;28;20036;-80
2021/05/11 15:24:55;;;;;;;6.55;2.72;;;20.90;40.20;;;;;;5037652;28;20029;-82
2021/05/11 15:27:21;;;;;;;7.03;1.88;;;20.70;40.50;;;;;;5037308;28;20355;-80
2021/05/11 15:29:46;;;;;;;8.25;2.45;;;20.60;40.70;;;;;;5020910;28;20037;-82
2021/05/11 15:32:40;;;;;;;5.90;1.88;;;20.60;40.90;;;;;;5021888;28;20033;-82
2021/05/11 15:35:11;;;;;;;7.07;1.55;;;20.40;41.10;;;;;;5038144;28;20503;-81
2021/05/11 15:37:38;;;;;;;7.22;2.10;;;20.30;41.30;;;;;;5037799;28;20051;-80
2021/05/11 15:40:14;;;;;;;12.40;2.90;;;20.20;41.60;;;;;;5021205;28;20386;-81
2021/05/11 15:42:41;;;;;;;4.72;1.48;;;20.30;41.70;;;;;;5037439;28;20023;-80
2021/05/11 15:45:09;;;;;;;7.53;2.47;;;20.40;41.60;;;;;;5055509;28;20074;-81
2021/05/11 15:47:37;;;;;;;8.20;1.80;;;20.50;41.70;;;;;;5037504;28;20029;-80
2021/05/11 15:50:07;;;;;;;8.90;2.42;;;20.60;41.70;;;;;;5037154;28;20451;-81
2021/05/11 15:52:33;;;;;;;6.10;2.00;;;20.80;41.90;;;;;;5037336;28;20060;-81
2021/05/11 15:54:59;;;;;;;8.32;1.98;;;21.00;42.00;;;;;;5021122;28;20033;-78
2021/05/11 15:57:25;;;;;;;8.75;3.85;;;21.10;41.70;;;;;;5036490;28;20092;-79
2021/05/11 15:59:50;;;;;;;8.02;1.60;;;21.10;41.20;;;;;;5019562;28;20131;-82
2021/05/11 16:02:16;;;;;;;13.27;1.80;;;21.10;41.20;;;;;;5035872;28;20065;-79
2021/05/11 16:04:42;;;;;;;7.03;1.77;;;21.10;41.10;;;;;;5019409;28;20021;-81
2021/05/11 16:07:08;;;;;;;7.57;1.15;;;20.90;40.90;;;;;;5054332;28;20025;-81
2021/05/11 16:09:34;;;;;;;12.68;2.00;;;20.80;41.10;;;;;;5019852;28;20037;-81
2021/05/11 16:12:00;;;;;;;9.00;1.60;;;20.60;41.30;;;;;;5019976;28;20021;-80
2021/05/11 16:14:25;;;;;;;5.60;2.30;;;20.60;41.40;;;;;;5035429;28;20380;-79
2021/05/11 16:16:51;;;;;;;6.07;1.42;;;20.40;41.50;;;;;;5003013;28;20094;-79
2021/05/11 16:19:17;;;;;;;10.95;1.20;;;20.20;41.70;;;;;;5035199;28;20136;-79
2021/05/11 16:21:43;;;;;;;4.75;1.73;;;20.20;42.00;;;;;;5035841;28;20028;-79
2021/05/11 16:24:09;;;;;;;10.15;1.73;;;20.20;42.10;;;;;;5018931;28;20025;-80
2021/05/11 16:26:34;;;;;;;6.78;1.70;;;20.10;42.10;;;;;;5035124;28;20394;-78
2021/05/11 16:29:00;;;;;;;5.22;1.25;;;20.00;42.10;;;;;;5018917;28;20035;-81
2021/05/11 16:31:26;;;;;;;8.07;1.63;;;19.80;42.10;;;;;;5019780;28;20082;-79
2021/05/11 16:33:52;;;;;;;6.65;1.75;;;19.70;42.30;;;;;;5019007;28;20056;-81
2021/05/11 16:36:18;;;;;;;10.45;2.17;;;19.50;42.40;;;;;;5035478;28;20032;-82
2021/05/11 16:38:43;;;;;;;4.93;1.65;;;19.50;42.50;;;;;;5019368;28;20028;-81
2021/05/11 16:41:10;;;;;;;4.72;2.00;;;19.30;42.40;;;;;;5018930;28;20025;-81
2021/05/11 16:43:36;;;;;;;5.10;2.20;;;19.20;42.50;;;;;;5035942;28;20093;-80
2021/05/11 16:46:03;;;;;;;14.20;2.70;;;19.00;42.00;;;;;;5034670;28;20025;-79
2021/05/11 16:48:30;;;;;;;6.60;1.75;;;18.90;42.50;;;;;;5035048;28;20390;-79
2021/05/11 16:50:56;;;;;;;7.43;1.83;;;18.80;42.00;;;;;;5018632;28;20029;-79
2021/05/11 16:53:22;;;;;;;8.52;3.08;;;18.70;42.00;;;;;;5052343;28;20078;-78
2021/05/11 16:55:48;;;;;;;5.03;1.52;;;18.60;42.20;;;;;;5034711;28;20425;-77
2021/05/11 16:58:14;;;;;;;6.25;2.35;;;18.40;42.30;;;;;;5034160;28;20512;-78
2021/05/11 17:00:42;;;;;;;10.88;1.55;;;18.30;42.70;;;;;;5017961;28;20447;-78
2021/05/11 17:03:08;;;;;;;6.22;1.20;;;18.20;43.00;;;;;;5016846;28;20459;-79
2021/05/11 17:05:34;;;;;;;4.25;1.23;;;18.20;43.30;;;;;;5035038;28;20052;-80
2021/05/11 17:08:01;;;;;;;5.25;1.73;;;18.20;43.30;;;;;;5018213;28;20163;-79
2021/05/11 17:10:30;;;;;;;7.82;2.25;;;18.30;43.40;;;;;;5018616;28;20119;-80
2021/05/11 17:12:58;;;;;;;9.65;2.40;;;18.30;43.60;;;;;;5036157;28;20606;-79
2021/05/11 17:15:25;;;;;;;7.10;1.85;;;18.20;43.30;;;;;;5035455;28;20463;-81
2021/05/11 17:17:51;;;;;;;12.63;2.78;;;18.30;43.30;;;;;;5019304;28;20037;-79
2021/05/11 17:20:20;;;;;;;5.43;1.83;;;18.20;43.20;;;;;;5018457;28;20095;-79